createdAt,value
2023-04-16T00:01:03.093Z,100963.13
2023-04-16T00:06:07.129Z,100964.06
2023-04-16T00:11:12.175Z,100963.78
2023-04-16T00:16:15.624Z,100957.66
2023-04-16T00:21:19.120Z,100960.69
2023-04-16T00:26:23.923Z,100956.00
2023-04-16T00:31:28.757Z,100967.88
2023-04-16T00:36:32.979Z,100972.41
2023-04-16T00:41:38.901Z,100970.69
2023-04-16T00:46:42.847Z,100967.88
2023-04-16T00:51:46.267Z,100979.94
2023-04-16T00:56:52.174Z,100971.66
2023-04-16T01:01:55.796Z,100972.22
2023-04-16T01:06:59.303Z,100978.94
2023-04-16T01:12:04.248Z,100987.59
2023-04-16T01:17:07.656Z,100999.66
2023-04-16T01:22:12.392Z,101006.41
2023-04-16T01:27:16.092Z,101000.53
2023-04-16T01:32:19.598Z,100989.50
2023-04-16T01:37:25.420Z,101014.97
2023-04-16T01:42:29.086Z,101015.25
2023-04-16T01:47:32.684Z,101015.88
2023-04-16T01:52:37.756Z,101018.22
2023-04-16T01:57:41.233Z,101024.16
2023-04-16T02:02:44.966Z,101031.47
2023-04-16T02:07:52.896Z,101033.22
2023-04-16T02:12:56.462Z,101034.81
2023-04-16T02:17:59.897Z,101036.22
2023-04-16T02:23:04.744Z,101033.47
2023-04-16T02:28:08.982Z,101035.00
2023-04-16T02:33:16.342Z,101036.31
2023-04-16T02:38:31.956Z,101039.94
2023-04-16T02:43:35.701Z,101042.16
2023-04-16T02:48:39.154Z,101048.13
2023-04-16T02:53:45.948Z,101053.34
2023-04-16T02:58:49.856Z,101068.66
2023-04-16T03:03:53.384Z,101066.06
2023-04-16T03:08:58.308Z,101069.09
2023-04-16T03:14:01.749Z,101070.16
2023-04-16T03:19:05.594Z,101069.44
2023-04-16T03:24:10.537Z,101075.34
2023-04-16T03:29:13.929Z,101068.25
2023-04-16T03:34:17.542Z,101076.47
2023-04-16T03:39:22.415Z,101082.84
2023-04-16T03:44:26.132Z,101079.13
2023-04-16T03:49:29.646Z,101081.94
2023-04-16T03:54:36.794Z,101087.44
2023-04-16T03:59:54.316Z,101077.53
2023-04-16T04:04:58.665Z,101079.84
2023-04-16T04:10:03.763Z,101075.22
2023-04-16T04:15:12.114Z,101094.44
2023-04-16T04:20:15.589Z,101098.41
2023-04-16T04:25:23.719Z,101103.19
2023-04-16T04:30:27.474Z,101102.66
2023-04-16T04:35:31.255Z,101102.19
2023-04-16T04:40:37.488Z,101113.44
2023-04-16T04:45:41.277Z,101102.59
2023-04-16T04:50:46.449Z,101100.47
2023-04-16T04:55:54.203Z,101120.25
2023-04-16T05:01:00.868Z,101133.75
2023-04-16T05:06:04.793Z,101132.31
2023-04-16T05:11:09.628Z,101148.91
2023-04-16T05:16:13.204Z,101159.06
2023-04-16T05:21:16.636Z,101163.38
2023-04-16T05:26:22.769Z,101150.53
2023-04-16T05:31:26.221Z,101159.63
2023-04-16T05:36:29.689Z,101158.78
2023-04-16T05:41:34.551Z,101177.50
2023-04-16T05:46:38.186Z,101166.41
2023-04-16T05:51:41.916Z,101173.53
2023-04-16T05:56:46.780Z,101175.41
2023-04-16T06:01:50.255Z,101187.66
2023-04-16T06:06:53.723Z,101191.34
2023-04-16T06:11:58.964Z,101202.34
2023-04-16T06:17:02.440Z,101204.81
2023-04-16T06:22:06.441Z,101203.16
2023-04-16T06:27:11.342Z,101209.38
2023-04-16T06:32:14.870Z,101214.06
2023-04-16T06:37:18.277Z,101222.44
2023-04-16T06:42:23.090Z,101223.53
2023-04-16T06:47:29.130Z,101219.16
2023-04-16T06:52:32.623Z,101218.03
2023-04-16T06:57:37.848Z,101229.53
2023-04-16T07:02:41.427Z,101229.41
2023-04-16T07:07:44.925Z,101234.00
2023-04-16T07:12:49.825Z,101236.63
2023-04-16T07:17:53.237Z,101239.75
2023-04-16T07:22:56.678Z,101240.22
2023-04-16T07:28:01.380Z,101235.56
2023-04-16T07:33:05.439Z,101243.50
2023-04-16T07:38:08.894Z,101251.81
2023-04-16T07:43:15.159Z,101268.97
2023-04-16T07:48:18.761Z,101263.19
2023-04-16T07:53:22.171Z,101263.56
2023-04-16T07:58:26.976Z,101279.63
2023-04-16T08:03:30.690Z,101282.38
2023-04-16T08:08:34.354Z,101280.44
2023-04-16T08:13:39.175Z,101291.72
2023-04-16T08:18:42.563Z,101296.75
2023-04-16T08:23:45.969Z,101294.88
2023-04-16T08:28:50.769Z,101293.84
2023-04-16T08:33:54.203Z,101300.78
2023-04-16T08:38:57.587Z,101309.34
2023-04-16T08:44:08.755Z,101304.06
2023-04-16T08:49:17.868Z,101314.31
2023-04-16T08:54:36.274Z,101319.28
2023-04-16T08:59:41.353Z,101317.25
2023-04-16T09:04:45.021Z,101330.78
2023-04-16T09:09:49.853Z,101325.66
2023-04-16T09:14:54.742Z,101326.44
2023-04-16T09:19:58.249Z,101336.22
2023-04-16T09:25:01.634Z,101336.88
2023-04-16T09:30:21.668Z,101330.28
2023-04-16T09:35:25.185Z,101340.69
2023-04-16T09:40:31.037Z,101337.97
2023-04-16T09:45:49.480Z,101347.28
2023-04-16T09:50:53.025Z,101351.66
2023-04-16T09:55:57.895Z,101346.63
2023-04-16T10:01:03.748Z,101362.88
2023-04-16T10:06:15.787Z,101363.16
2023-04-16T10:11:20.641Z,101370.78
2023-04-16T10:16:25.767Z,101363.16
2023-04-16T10:21:33.639Z,101368.78
2023-04-16T10:26:37.521Z,101374.44
2023-04-16T10:31:42.948Z,101381.66
2023-04-16T10:36:49.474Z,101392.31
2023-04-16T10:42:08.029Z,101396.22
2023-04-16T10:47:13.655Z,101405.56
2023-04-16T10:52:17.964Z,101401.50
2023-04-16T10:57:21.506Z,101401.34
2023-04-16T11:02:30.303Z,101397.31
2023-04-16T11:07:34.753Z,101406.88
2023-04-16T11:12:39.912Z,101399.41
2023-04-16T11:17:46.798Z,101405.72
2023-04-16T11:22:50.831Z,101409.56
2023-04-16T11:27:54.878Z,101399.50
2023-04-16T11:32:59.928Z,101399.97
2023-04-16T11:38:04.058Z,101410.19
2023-04-16T11:43:15.274Z,101416.97
2023-04-16T11:48:20.088Z,101414.50
2023-04-16T11:53:23.641Z,101418.41
2023-04-16T11:58:27.015Z,101424.59
2023-04-16T12:03:43.419Z,101429.88
2023-04-16T12:08:47.530Z,101428.53
2023-04-16T12:14:09.378Z,101425.09
2023-04-16T12:19:14.560Z,101416.00
2023-04-16T12:24:20.811Z,101424.00
2023-04-16T12:29:27.707Z,101426.53
2023-04-16T12:34:48.913Z,101427.28
2023-04-16T12:39:53.055Z,101436.09
2023-04-16T12:44:56.484Z,101428.88
2023-04-16T12:50:01.421Z,101424.19
2023-04-16T12:55:05.530Z,101427.16
2023-04-16T13:00:10.856Z,101416.97
2023-04-16T13:05:16.818Z,101415.09
2023-04-16T13:10:23.388Z,101419.16
2023-04-16T13:15:26.878Z,101418.97
2023-04-16T13:20:31.865Z,101425.94
2023-04-16T13:25:35.426Z,101422.16
2023-04-16T13:30:38.862Z,101417.22
2023-04-16T13:35:43.760Z,101416.94
2023-04-16T13:40:47.155Z,101411.38
2023-04-16T13:45:50.662Z,101408.00
2023-04-16T13:50:55.924Z,101396.88
2023-04-16T13:55:59.884Z,101393.34
2023-04-16T14:01:03.381Z,101393.78
2023-04-16T14:06:08.274Z,101392.66
2023-04-16T14:11:12.107Z,101382.63
2023-04-16T14:16:15.699Z,101392.25
2023-04-16T14:21:20.667Z,101393.56
2023-04-16T14:26:24.151Z,101393.47
2023-04-16T14:31:27.735Z,101391.56
2023-04-16T14:36:32.575Z,101397.75
2023-04-16T14:41:35.976Z,101393.22
2023-04-16T14:46:41.057Z,101402.44
2023-04-16T14:51:46.426Z,101404.53
2023-04-16T14:56:50.815Z,101407.16
2023-04-16T15:01:55.805Z,101403.16
2023-04-16T15:07:00.667Z,101407.31
2023-04-16T15:12:04.360Z,101411.88
2023-04-16T15:17:07.960Z,101402.63
2023-04-16T15:22:14.672Z,101406.19
2023-04-16T15:27:19.237Z,101411.66
2023-04-16T15:32:22.857Z,101412.81
2023-04-16T15:37:27.840Z,101412.63
2023-04-16T15:42:32.126Z,101408.88
2023-04-16T15:47:37.201Z,101406.78
2023-04-16T15:52:43.298Z,101418.97
2023-04-16T15:57:47.040Z,101426.38
2023-04-16T16:02:50.595Z,101427.72
2023-04-16T16:07:55.513Z,101434.28
2023-04-16T16:13:05.138Z,101429.06
2023-04-16T16:18:09.210Z,101427.25
2023-04-16T16:23:14.092Z,101424.75
2023-04-16T16:28:17.543Z,101423.97
2023-04-16T16:33:20.998Z,101425.25
2023-04-16T16:38:25.893Z,101432.72
2023-04-16T16:43:29.288Z,101421.41
2023-04-16T16:48:32.751Z,101436.09
2023-04-16T16:53:37.583Z,101449.94
2023-04-16T16:58:44.222Z,101457.69
2023-04-16T17:03:47.735Z,101465.59
2023-04-16T17:08:52.556Z,101463.38
2023-04-16T17:13:55.915Z,101464.41
2023-04-16T17:19:00.032Z,101467.00
2023-04-16T17:24:05.889Z,101461.78
2023-04-16T17:29:09.377Z,101480.31
2023-04-16T17:34:13.053Z,101485.72
2023-04-16T17:39:18.022Z,101491.41
2023-04-16T17:44:22.924Z,101497.56
2023-04-16T17:49:26.320Z,101500.06
2023-04-16T17:54:31.092Z,101505.72
2023-04-16T17:59:34.522Z,101513.88
2023-04-16T18:04:38.402Z,101511.59
2023-04-16T18:09:43.232Z,101517.56
2023-04-16T18:14:46.667Z,101531.47
2023-04-16T18:19:50.416Z,101542.09
2023-04-16T18:24:55.261Z,101538.69
2023-04-16T18:29:58.686Z,101554.00
2023-04-16T18:35:02.188Z,101554.47
2023-04-16T18:40:08.881Z,101556.94
2023-04-16T18:45:16.490Z,101568.00
2023-04-16T18:50:24.854Z,101569.94
2023-04-16T18:55:31.818Z,101573.91
2023-04-16T19:00:35.413Z,101581.78
2023-04-16T19:05:38.820Z,101593.84
2023-04-16T19:10:47.756Z,101595.13
2023-04-16T19:15:51.102Z,101597.41
2023-04-16T19:20:59.794Z,101602.59
2023-04-16T19:26:04.781Z,101604.63
2023-04-16T19:31:08.273Z,101614.25
2023-04-16T19:36:11.761Z,101604.25
2023-04-16T19:41:16.509Z,101606.78
2023-04-16T19:46:20.023Z,101606.47
2023-04-16T19:51:24.735Z,101616.13
2023-04-16T19:56:29.562Z,101607.44
2023-04-16T20:01:33.330Z,101620.50
2023-04-16T20:06:36.769Z,101622.84
2023-04-16T20:11:41.483Z,101626.47
2023-04-16T20:16:44.889Z,101634.47
2023-04-16T20:21:48.306Z,101634.75
2023-04-16T20:26:53.045Z,101631.13
2023-04-16T20:31:56.444Z,101621.03
2023-04-16T20:36:59.793Z,101631.16
2023-04-16T20:42:09.981Z,101636.38
2023-04-16T20:47:14.733Z,101633.47
2023-04-16T20:52:18.161Z,101624.94
2023-04-16T20:57:23.017Z,101622.50
2023-04-16T21:02:28.015Z,101622.22
2023-04-16T21:07:31.981Z,101629.47
2023-04-16T21:12:36.866Z,101637.53
2023-04-16T21:17:40.284Z,101627.09
2023-04-16T21:22:43.776Z,101633.88
2023-04-16T21:27:48.621Z,101637.06
2023-04-16T21:32:52.013Z,101640.44
2023-04-16T21:37:55.413Z,101640.66
2023-04-16T21:43:00.135Z,101637.06
2023-04-16T21:48:03.556Z,101637.34
2023-04-16T21:53:07.179Z,101648.19
2023-04-16T21:58:11.943Z,101642.72
2023-04-16T22:03:17.380Z,101655.88
2023-04-16T22:08:24.902Z,101651.47
2023-04-16T22:13:32.184Z,101642.34
2023-04-16T22:18:37.403Z,101646.34
2023-04-16T22:23:40.917Z,101653.34
2023-04-16T22:28:46.528Z,101653.72
2023-04-16T22:33:49.952Z,101650.31
2023-04-16T22:38:53.354Z,101647.34
2023-04-16T22:43:58.136Z,101654.78
2023-04-16T22:49:01.494Z,101649.72
2023-04-16T22:54:05.418Z,101656.47
2023-04-16T22:59:10.585Z,101654.34
2023-04-16T23:04:16.102Z,101644.78
2023-04-16T23:09:20.461Z,101651.25
2023-04-16T23:14:26.373Z,101652.91
2023-04-16T23:19:31.051Z,101655.75
2023-04-16T23:24:34.521Z,101655.50
2023-04-16T23:29:39.427Z,101665.44
2023-04-16T23:34:42.791Z,101664.19
2023-04-16T23:39:46.200Z,101668.41
2023-04-16T23:44:50.888Z,101660.06
2023-04-16T23:49:54.246Z,101662.72
2023-04-16T23:54:57.661Z,101665.66
